sensor_id;sensor_type;location;lat;lon;timestamp;pressure;altitude;pressure_sealevel;temperature;humidity
17649;BME280;8943;51.110;-4.158;2023-04-27T09:40:25;100771.91;;;18.39;50.58
17649;BME280;8943;51.110;-4.158;2023-04-27T09:42:57;100770.28;;;18.46;50.53
17649;BME280;8943;51.110;-4.158;2023-04-27T09:45:40;100773.16;;;18.52;50.26
17649;BME280;8943;51.110;-4.158;2023-04-27T09:48:13;100766.59;;;18.55;50.12
17649;BME280;8943;51.110;-4.158;2023-04-27T09:50:52;100766.06;;;18.51;50.29
17649;BME280;8943;51.110;-4.158;2023-04-27T09:53:49;100769.63;;;18.52;50.44
17649;BME280;8943;51.110;-4.158;2023-04-27T09:56:53;100763.53;;;18.50;50.53
17649;BME280;8943;51.110;-4.158;2023-04-27T09:59:36;100759.50;;;18.54;50.48
17649;BME280;8943;51.110;-4.158;2023-04-27T10:02:10;100761.38;;;18.62;50.44
17649;BME280;8943;51.110;-4.158;2023-04-27T10:05:14;100760.22;;;18.64;50.64
17649;BME280;8943;51.110;-4.158;2023-04-27T10:08:21;100761.94;;;18.73;50.84
17649;BME280;8943;51.110;-4.158;2023-04-27T10:10:54;100765.16;;;18.77;50.91
17649;BME280;8943;51.110;-4.158;2023-04-27T10:13:26;100758.94;;;18.85;50.60
17649;BME280;8943;51.110;-4.158;2023-04-27T10:15:54;100749.34;;;18.90;50.87
17649;BME280;8943;51.110;-4.158;2023-04-27T10:18:26;100747.16;;;18.94;50.86
17649;BME280;8943;51.110;-4.158;2023-04-27T10:21:08;100740.56;;;18.96;50.83
17649;BME280;8943;51.110;-4.158;2023-04-27T10:23:49;100727.75;;;18.98;50.57
17649;BME280;8943;51.110;-4.158;2023-04-27T10:26:22;100727.41;;;19.01;50.90
17649;BME280;8943;51.110;-4.158;2023-04-27T10:29:03;100711.19;;;19.01;50.90
17649;BME280;8943;51.110;-4.158;2023-04-27T10:31:33;100697.38;;;19.04;50.74
17649;BME280;8943;51.110;-4.158;2023-04-27T10:34:07;100696.53;;;19.04;50.89
17649;BME280;8943;51.110;-4.158;2023-04-27T10:36:36;100689.41;;;19.03;50.92
17649;BME280;8943;51.110;-4.158;2023-04-27T10:39:18;100695.84;;;19.10;50.99
17649;BME280;8943;51.110;-4.158;2023-04-27T10:42:05;100684.03;;;19.19;51.21
17649;BME280;8943;51.110;-4.158;2023-04-27T10:44:35;100675.75;;;19.21;51.18
17649;BME280;8943;51.110;-4.158;2023-04-27T10:47:13;100659.69;;;19.27;50.90
17649;BME280;8943;51.110;-4.158;2023-04-27T10:49:42;100660.06;;;19.33;50.91
17649;BME280;8943;51.110;-4.158;2023-04-27T10:52:10;100657.31;;;19.41;51.02
17649;BME280;8943;51.110;-4.158;2023-04-27T10:54:44;100646.38;;;19.42;51.20
17649;BME280;8943;51.110;-4.158;2023-04-27T10:57:13;100636.03;;;19.54;50.93
17649;BME280;8943;51.110;-4.158;2023-04-27T10:59:49;100637.69;;;19.55;50.99
17649;BME280;8943;51.110;-4.158;2023-04-27T11:02:25;100631.28;;;19.64;51.22
17649;BME280;8943;51.110;-4.158;2023-04-27T11:04:54;100625.16;;;19.78;51.19
17649;BME280;8943;51.110;-4.158;2023-04-27T11:07:24;100603.81;;;19.92;51.20
17649;BME280;8943;51.110;-4.158;2023-04-27T11:09:55;100599.28;;;20.15;51.38
17649;BME280;8943;51.110;-4.158;2023-04-27T11:12:23;100592.56;;;20.34;51.13
17649;BME280;8943;51.110;-4.158;2023-04-27T11:14:56;100590.44;;;20.52;51.19
17649;BME280;8943;51.110;-4.158;2023-04-27T11:17:28;100574.94;;;20.69;51.04
17649;BME280;8943;51.110;-4.158;2023-04-27T11:19:57;100578.28;;;20.71;50.29
17649;BME280;8943;51.110;-4.158;2023-04-27T11:22:26;100576.59;;;20.70;50.23
17649;BME280;8943;51.110;-4.158;2023-04-27T11:24:56;100572.28;;;20.61;50.45
17649;BME280;8943;51.110;-4.158;2023-04-27T11:27:35;100570.72;;;20.67;50.22
17649;BME280;8943;51.110;-4.158;2023-04-27T11:30:18;100565.09;;;20.68;50.25
17649;BME280;8943;51.110;-4.158;2023-04-27T11:32:49;100547.47;;;20.72;50.11
17649;BME280;8943;51.110;-4.158;2023-04-27T11:35:32;100544.03;;;20.78;49.87
17649;BME280;8943;51.110;-4.158;2023-04-27T11:38:02;100535.63;;;20.88;50.04
17649;BME280;8943;51.110;-4.158;2023-04-27T11:40:33;100534.09;;;20.94;49.88
17649;BME280;8943;51.110;-4.158;2023-04-27T11:43:11;100527.53;;;21.03;49.84
17649;BME280;8943;51.110;-4.158;2023-04-27T11:45:41;100533.53;;;21.13;49.91
17649;BME280;8943;51.110;-4.158;2023-04-27T11:48:16;100543.19;;;21.30;49.40
17649;BME280;8943;51.110;-4.158;2023-04-27T11:53:15;100537.94;;;21.58;49.43
17649;BME280;8943;51.110;-4.158;2023-04-27T11:55:51;100537.53;;;21.62;49.33
17649;BME280;8943;51.110;-4.158;2023-04-27T11:58:21;100528.19;;;21.64;49.11
17649;BME280;8943;51.110;-4.158;2023-04-27T12:00:52;100529.69;;;21.52;48.66
17649;BME280;8943;51.110;-4.158;2023-04-27T12:03:24;100513.44;;;21.37;48.76
17649;BME280;8943;51.110;-4.158;2023-04-27T12:05:58;100505.88;;;21.32;48.49
17649;BME280;8943;51.110;-4.158;2023-04-27T12:08:31;100505.28;;;21.22;48.76
17649;BME280;8943;51.110;-4.158;2023-04-27T12:11:04;100492.16;;;21.19;48.75
17649;BME280;8943;51.110;-4.158;2023-04-27T12:13:32;100490.47;;;21.18;48.81
17649;BME280;8943;51.110;-4.158;2023-04-27T12:16:14;100484.38;;;21.16;48.97
17649;BME280;8943;51.110;-4.158;2023-04-27T12:18:49;100491.59;;;21.24;49.03
17649;BME280;8943;51.110;-4.158;2023-04-27T12:21:26;100485.91;;;21.33;48.92
17649;BME280;8943;51.110;-4.158;2023-04-27T12:24:56;100484.88;;;21.34;48.81
17649;BME280;8943;51.110;-4.158;2023-04-27T14:05:39;100429.66;;;22.71;45.74
17649;BME280;8943;51.110;-4.158;2023-04-27T14:08:11;100443.03;;;22.72;45.74
17649;BME280;8943;51.110;-4.158;2023-04-27T14:10:40;100433.22;;;22.71;45.95
17649;BME280;8943;51.110;-4.158;2023-04-27T14:13:09;100434.50;;;22.75;45.64
17649;BME280;8943;51.110;-4.158;2023-04-27T14:15:39;100432.38;;;22.71;45.43
17649;BME280;8943;51.110;-4.158;2023-04-27T14:18:09;100428.97;;;22.62;45.54
17649;BME280;8943;51.110;-4.158;2023-04-27T14:20:53;100432.03;;;22.52;45.46
17649;BME280;8943;51.110;-4.158;2023-04-27T14:23:26;100430.31;;;22.45;45.49
17649;BME280;8943;51.110;-4.158;2023-04-27T14:25:55;100419.44;;;22.45;45.63
17649;BME280;8943;51.110;-4.158;2023-04-27T14:28:37;100420.69;;;22.42;45.86
17649;BME280;8943;51.110;-4.158;2023-04-27T14:31:09;100429.91;;;22.48;45.96
17649;BME280;8943;51.110;-4.158;2023-04-27T14:33:37;100424.09;;;22.51;45.79
17649;BME280;8943;51.110;-4.158;2023-04-27T14:36:08;100412.34;;;22.44;45.63
17649;BME280;8943;51.110;-4.158;2023-04-27T14:38:37;100417.69;;;22.30;45.35
17649;BME280;8943;51.110;-4.158;2023-04-27T14:41:05;100413.22;;;22.23;45.32
17649;BME280;8943;51.110;-4.158;2023-04-27T14:43:35;100406.31;;;22.20;45.67
17649;BME280;8943;51.110;-4.158;2023-04-27T14:46:03;100416.78;;;22.23;45.93
17649;BME280;8943;51.110;-4.158;2023-04-27T14:48:46;100403.72;;;22.33;45.79
17649;BME280;8943;51.110;-4.158;2023-04-27T14:51:17;100398.13;;;22.42;45.63
17649;BME280;8943;51.110;-4.158;2023-04-27T14:53:45;100387.97;;;22.50;45.58
17649;BME280;8943;51.110;-4.158;2023-04-27T14:56:13;100392.81;;;22.55;45.46
17649;BME280;8943;51.110;-4.158;2023-04-27T14:58:44;100395.66;;;22.47;45.11
17649;BME280;8943;51.110;-4.158;2023-04-27T15:01:13;100392.22;;;22.31;44.80
17649;BME280;8943;51.110;-4.158;2023-04-27T15:03:42;100377.81;;;22.09;45.19
17649;BME280;8943;51.110;-4.158;2023-04-27T15:06:10;100374.78;;;21.98;45.14
17649;BME280;8943;51.110;-4.158;2023-04-27T15:08:41;100374.09;;;21.89;45.57
17649;BME280;8943;51.110;-4.158;2023-04-27T15:11:10;100366.47;;;21.78;45.64
17649;BME280;8943;51.110;-4.158;2023-04-27T15:13:40;100375.78;;;21.69;45.30
17649;BME280;8943;51.110;-4.158;2023-04-27T15:16:12;100381.53;;;21.59;45.50
17649;BME280;8943;51.110;-4.158;2023-04-27T15:18:41;100371.41;;;21.31;45.59
17649;BME280;8943;51.110;-4.158;2023-04-27T15:21:10;100356.41;;;21.14;45.98
17649;BME280;8943;51.110;-4.158;2023-04-27T15:23:42;100360.44;;;21.03;45.97
17649;BME280;8943;51.110;-4.158;2023-04-27T15:26:10;100367.00;;;20.94;46.29
17649;BME280;8943;51.110;-4.158;2023-04-27T15:28:39;100355.34;;;20.79;46.24
17649;BME280;8943;51.110;-4.158;2023-04-27T15:31:07;100360.00;;;20.70;46.10
17649;BME280;8943;51.110;-4.158;2023-04-27T15:33:42;100354.88;;;20.61;46.72
17649;BME280;8943;51.110;-4.158;2023-04-27T15:36:10;100358.31;;;20.54;46.89
17649;BME280;8943;51.110;-4.158;2023-04-27T15:38:40;100351.78;;;20.49;46.91
17649;BME280;8943;51.110;-4.158;2023-04-27T15:41:09;100351.66;;;20.42;47.14
17649;BME280;8943;51.110;-4.158;2023-04-27T15:43:37;100337.00;;;20.37;47.30
17649;BME280;8943;51.110;-4.158;2023-04-27T15:46:06;100338.13;;;20.42;47.62
17649;BME280;8943;51.110;-4.158;2023-04-27T15:48:39;100334.97;;;20.53;47.44
17649;BME280;8943;51.110;-4.158;2023-04-27T15:51:16;100339.56;;;20.53;47.22
17649;BME280;8943;51.110;-4.158;2023-04-27T15:54:00;100337.00;;;20.37;47.07
17649;BME280;8943;51.110;-4.158;2023-04-27T15:56:32;100338.13;;;20.27;46.85
17649;BME280;8943;51.110;-4.158;2023-04-27T15:59:01;100343.72;;;20.11;47.53
17649;BME280;8943;51.110;-4.158;2023-04-27T16:01:32;100346.84;;;20.00;47.18
17649;BME280;8943;51.110;-4.158;2023-04-27T16:04:01;100346.16;;;19.83;47.20
17649;BME280;8943;51.110;-4.158;2023-04-27T16:06:33;100346.41;;;19.73;47.79
17649;BME280;8943;51.110;-4.158;2023-04-27T16:12:44;100332.94;;;19.65;48.66
17649;BME280;8943;51.110;-4.158;2023-04-27T16:16:05;100321.78;;;19.68;48.90
17649;BME280;8943;51.110;-4.158;2023-04-27T16:18:35;100322.63;;;19.69;48.95
17649;BME280;8943;51.110;-4.158;2023-04-27T16:27:18;100308.34;;;20.13;49.68
17649;BME280;8943;51.110;-4.158;2023-04-27T16:33:50;100302.59;;;20.45;49.55
17649;BME280;8943;51.110;-4.158;2023-04-27T16:36:22;100308.19;;;20.58;49.65
17649;BME280;8943;51.110;-4.158;2023-04-27T16:53:34;100285.75;;;20.20;49.33
17649;BME280;8943;51.110;-4.158;2023-04-27T16:56:28;100272.53;;;20.11;49.87
17649;BME280;8943;51.110;-4.158;2023-04-27T16:59:12;100261.81;;;20.17;50.17
17649;BME280;8943;51.110;-4.158;2023-04-27T17:01:56;100265.84;;;20.21;50.18
17649;BME280;8943;51.110;-4.158;2023-04-27T17:04:57;100259.03;;;20.25;50.53
17649;BME280;8943;51.110;-4.158;2023-04-27T17:08:06;100256.97;;;20.27;50.40
17649;BME280;8943;51.110;-4.158;2023-04-27T17:11:30;100258.63;;;20.28;50.50
17649;BME280;8943;51.110;-4.158;2023-04-27T17:14:30;100249.88;;;20.26;50.18
17649;BME280;8943;51.110;-4.158;2023-04-27T17:17:00;100260.78;;;20.18;50.14
17649;BME280;8943;51.110;-4.158;2023-04-27T17:20:31;100255.38;;;20.03;50.39
17649;BME280;8943;51.110;-4.158;2023-04-27T17:56:55;100227.53;;;19.65;51.14
17649;BME280;8943;51.110;-4.158;2023-04-27T17:59:25;100222.50;;;19.62;51.49
17649;BME280;8943;51.110;-4.158;2023-04-27T18:01:54;100229.41;;;19.65;50.92
17649;BME280;8943;51.110;-4.158;2023-04-27T18:04:24;100237.69;;;19.63;51.14
17649;BME280;8943;51.110;-4.158;2023-04-27T20:03:25;100238.38;;;18.65;53.92
17649;BME280;8943;51.110;-4.158;2023-04-27T20:29:46;100273.94;;;18.21;56.28
17649;BME280;8943;51.110;-4.158;2023-04-27T20:32:17;100268.25;;;18.16;56.69
17649;BME280;8943;51.110;-4.158;2023-04-27T20:34:56;100264.53;;;18.17;56.52
